sensor_id;sensor_type;location;lat;lon;timestamp;temperature;humidity
52509;DHT22;38420;53.150;6.370;2023-07-09T00:00:21;21.60;99.90
52509;DHT22;38420;53.150;6.370;2023-07-09T00:02:48;21.70;99.90
52509;DHT22;38420;53.150;6.370;2023-07-09T00:05:16;21.60;99.90
52509;DHT22;38420;53.150;6.370;2023-07-09T00:07:43;21.60;99.90
52509;DHT22;38420;53.150;6.370;2023-07-09T00:10:18;21.60;99.90
52509;DHT22;38420;53.150;6.370;2023-07-09T00:12:45;21.60;99.90
52509;DHT22;38420;53.150;6.370;2023-07-09T00:15:12;21.50;99.90
52509;DHT22;38420;53.150;6.370;2023-07-09T00:17:38;21.50;99.90
52509;DHT22;38420;53.150;6.370;2023-07-09T00:20:07;21.50;99.90
52509;DHT22;38420;53.150;6.370;2023-07-09T00:22:42;21.50;99.90
52509;DHT22;38420;53.150;6.370;2023-07-09T00:25:21;21.50;99.90
52509;DHT22;38420;53.150;6.370;2023-07-09T00:27:46;21.40;99.90
52509;DHT22;38420;53.150;6.370;2023-07-09T00:30:20;21.40;99.90
52509;DHT22;38420;53.150;6.370;2023-07-09T00:32:50;21.40;99.90
52509;DHT22;38420;53.150;6.370;2023-07-09T00:35:17;21.40;99.90
52509;DHT22;38420;53.150;6.370;2023-07-09T00:37:44;21.30;99.90
52509;DHT22;38420;53.150;6.370;2023-07-09T00:40:21;21.30;99.90
52509;DHT22;38420;53.150;6.370;2023-07-09T00:42:50;21.30;99.90
52509;DHT22;38420;53.150;6.370;2023-07-09T00:45:23;21.40;99.90
52509;DHT22;38420;53.150;6.370;2023-07-09T00:47:58;21.30;99.90
52509;DHT22;38420;53.150;6.370;2023-07-09T00:50:31;21.30;99.90
52509;DHT22;38420;53.150;6.370;2023-07-09T00:53:11;21.30;99.90
52509;DHT22;38420;53.150;6.370;2023-07-09T00:55:41;21.30;99.90
52509;DHT22;38420;53.150;6.370;2023-07-09T00:58:11;21.40;99.90
52509;DHT22;38420;53.150;6.370;2023-07-09T01:00:47;21.40;99.90
52509;DHT22;38420;53.150;6.370;2023-07-09T01:05:47;21.40;99.90
52509;DHT22;38420;53.150;6.370;2023-07-09T01:08:18;21.40;99.90
52509;DHT22;38420;53.150;6.370;2023-07-09T01:10:44;21.30;99.90
52509;DHT22;38420;53.150;6.370;2023-07-09T01:13:10;21.40;99.90
52509;DHT22;38420;53.150;6.370;2023-07-09T01:15:36;21.30;99.90
52509;DHT22;38420;53.150;6.370;2023-07-09T01:18:04;21.20;99.90
52509;DHT22;38420;53.150;6.370;2023-07-09T01:20:29;21.20;99.90
52509;DHT22;38420;53.150;6.370;2023-07-09T01:22:56;21.20;99.90
52509;DHT22;38420;53.150;6.370;2023-07-09T01:25:23;21.10;99.90
52509;DHT22;38420;53.150;6.370;2023-07-09T01:27:49;21.10;99.90
52509;DHT22;38420;53.150;6.370;2023-07-09T01:30:21;21.00;99.90
52509;DHT22;38420;53.150;6.370;2023-07-09T01:32:49;20.90;99.90
52509;DHT22;38420;53.150;6.370;2023-07-09T01:35:18;20.90;99.90
52509;DHT22;38420;53.150;6.370;2023-07-09T01:37:45;20.90;99.90
52509;DHT22;38420;53.150;6.370;2023-07-09T01:40:14;20.90;99.90
52509;DHT22;38420;53.150;6.370;2023-07-09T01:42:40;20.90;99.90
52509;DHT22;38420;53.150;6.370;2023-07-09T01:45:08;20.90;99.90
52509;DHT22;38420;53.150;6.370;2023-07-09T01:47:36;20.90;99.90
52509;DHT22;38420;53.150;6.370;2023-07-09T01:50:02;20.80;99.90
52509;DHT22;38420;53.150;6.370;2023-07-09T01:52:32;20.80;99.90
52509;DHT22;38420;53.150;6.370;2023-07-09T01:54:58;20.80;99.90
52509;DHT22;38420;53.150;6.370;2023-07-09T01:57:26;20.80;99.90
52509;DHT22;38420;53.150;6.370;2023-07-09T01:59:59;20.60;99.90
52509;DHT22;38420;53.150;6.370;2023-07-09T02:02:26;20.60;99.90
52509;DHT22;38420;53.150;6.370;2023-07-09T02:04:54;20.50;99.90
52509;DHT22;38420;53.150;6.370;2023-07-09T02:07:22;20.50;99.90
52509;DHT22;38420;53.150;6.370;2023-07-09T02:09:48;20.50;99.90
52509;DHT22;38420;53.150;6.370;2023-07-09T02:12:14;20.40;99.90
52509;DHT22;38420;53.150;6.370;2023-07-09T02:14:41;20.40;99.90
52509;DHT22;38420;53.150;6.370;2023-07-09T02:17:08;20.30;99.90
52509;DHT22;38420;53.150;6.370;2023-07-09T02:19:34;20.30;99.90
52509;DHT22;38420;53.150;6.370;2023-07-09T02:22:00;20.30;99.90
52509;DHT22;38420;53.150;6.370;2023-07-09T02:24:26;20.20;99.90
52509;DHT22;38420;53.150;6.370;2023-07-09T02:26:56;20.10;99.90
52509;DHT22;38420;53.150;6.370;2023-07-09T02:29:23;20.10;99.90
52509;DHT22;38420;53.150;6.370;2023-07-09T02:31:51;20.20;99.90
52509;DHT22;38420;53.150;6.370;2023-07-09T02:34:18;20.10;99.90
52509;DHT22;38420;53.150;6.370;2023-07-09T02:36:43;20.10;99.90
52509;DHT22;38420;53.150;6.370;2023-07-09T02:39:10;20.00;99.90
52509;DHT22;38420;53.150;6.370;2023-07-09T02:41:37;20.10;99.90
52509;DHT22;38420;53.150;6.370;2023-07-09T02:44:03;20.10;99.90
52509;DHT22;38420;53.150;6.370;2023-07-09T02:46:29;20.00;99.90
52509;DHT22;38420;53.150;6.370;2023-07-09T02:48:55;20.00;99.90
52509;DHT22;38420;53.150;6.370;2023-07-09T02:51:20;20.00;99.90
52509;DHT22;38420;53.150;6.370;2023-07-09T02:53:47;19.80;99.90
52509;DHT22;38420;53.150;6.370;2023-07-09T02:56:13;19.90;99.90
52509;DHT22;38420;53.150;6.370;2023-07-09T02:58:38;19.90;99.90
52509;DHT22;38420;53.150;6.370;2023-07-09T03:01:04;19.80;99.90
52509;DHT22;38420;53.150;6.370;2023-07-09T03:03:31;19.90;99.90
52509;DHT22;38420;53.150;6.370;2023-07-09T03:05:56;19.70;99.90
52509;DHT22;38420;53.150;6.370;2023-07-09T03:08:22;19.80;99.90
52509;DHT22;38420;53.150;6.370;2023-07-09T03:10:48;19.70;99.90
52509;DHT22;38420;53.150;6.370;2023-07-09T03:13:13;19.70;99.90
52509;DHT22;38420;53.150;6.370;2023-07-09T03:15:39;19.70;99.90
52509;DHT22;38420;53.150;6.370;2023-07-09T03:18:05;19.70;99.90
52509;DHT22;38420;53.150;6.370;2023-07-09T03:20:30;19.70;99.90
52509;DHT22;38420;53.150;6.370;2023-07-09T03:22:56;19.60;99.90
52509;DHT22;38420;53.150;6.370;2023-07-09T03:25:21;19.60;99.90
52509;DHT22;38420;53.150;6.370;2023-07-09T03:27:48;19.50;99.90
52509;DHT22;38420;53.150;6.370;2023-07-09T03:30:14;19.50;99.90
52509;DHT22;38420;53.150;6.370;2023-07-09T03:32:40;19.60;99.90
52509;DHT22;38420;53.150;6.370;2023-07-09T03:35:05;19.70;99.90
52509;DHT22;38420;53.150;6.370;2023-07-09T03:37:32;19.60;99.90
52509;DHT22;38420;53.150;6.370;2023-07-09T03:39:57;19.50;99.90
52509;DHT22;38420;53.150;6.370;2023-07-09T03:42:23;19.50;99.90
52509;DHT22;38420;53.150;6.370;2023-07-09T03:44:48;19.60;99.90
52509;DHT22;38420;53.150;6.370;2023-07-09T03:47:14;19.60;99.90
52509;DHT22;38420;53.150;6.370;2023-07-09T03:49:40;19.60;99.90
52509;DHT22;38420;53.150;6.370;2023-07-09T03:52:07;19.50;99.90
52509;DHT22;38420;53.150;6.370;2023-07-09T03:54:33;19.40;99.90
52509;DHT22;38420;53.150;6.370;2023-07-09T03:56:58;19.50;99.90
52509;DHT22;38420;53.150;6.370;2023-07-09T03:59:24;19.40;99.90
52509;DHT22;38420;53.150;6.370;2023-07-09T04:01:49;19.50;99.90
52509;DHT22;38420;53.150;6.370;2023-07-09T04:04:15;19.40;99.90
52509;DHT22;38420;53.150;6.370;2023-07-09T04:06:46;19.50;99.90
52509;DHT22;38420;53.150;6.370;2023-07-09T04:09:11;19.60;99.90
52509;DHT22;38420;53.150;6.370;2023-07-09T04:11:37;19.30;99.90
52509;DHT22;38420;53.150;6.370;2023-07-09T04:14:03;19.50;99.90
52509;DHT22;38420;53.150;6.370;2023-07-09T04:16:28;19.60;99.90
52509;DHT22;38420;53.150;6.370;2023-07-09T04:18:54;19.40;99.90
52509;DHT22;38420;53.150;6.370;2023-07-09T04:21:20;19.50;99.90
52509;DHT22;38420;53.150;6.370;2023-07-09T04:23:45;19.40;99.90
52509;DHT22;38420;53.150;6.370;2023-07-09T04:26:14;19.40;99.90
52509;DHT22;38420;53.150;6.370;2023-07-09T04:28:40;19.60;99.90
52509;DHT22;38420;53.150;6.370;2023-07-09T04:31:05;19.50;99.90
52509;DHT22;38420;53.150;6.370;2023-07-09T04:33:31;19.70;99.90
52509;DHT22;38420;53.150;6.370;2023-07-09T04:35:57;19.60;99.90
52509;DHT22;38420;53.150;6.370;2023-07-09T04:38:22;19.60;99.90
52509;DHT22;38420;53.150;6.370;2023-07-09T04:40:48;19.80;99.90
52509;DHT22;38420;53.150;6.370;2023-07-09T04:43:14;19.80;99.90
52509;DHT22;38420;53.150;6.370;2023-07-09T04:45:40;19.70;99.90
52509;DHT22;38420;53.150;6.370;2023-07-09T04:48:06;19.90;99.90
52509;DHT22;38420;53.150;6.370;2023-07-09T04:50:31;19.80;99.90
52509;DHT22;38420;53.150;6.370;2023-07-09T04:52:58;19.80;99.90
52509;DHT22;38420;53.150;6.370;2023-07-09T04:55:24;20.00;99.90
52509;DHT22;38420;53.150;6.370;2023-07-09T04:57:52;19.90;99.90
52509;DHT22;38420;53.150;6.370;2023-07-09T05:00:18;20.00;99.90
52509;DHT22;38420;53.150;6.370;2023-07-09T05:02:44;19.90;99.90
52509;DHT22;38420;53.150;6.370;2023-07-09T05:05:09;20.20;99.90
52509;DHT22;38420;53.150;6.370;2023-07-09T05:07:37;20.10;99.90
52509;DHT22;38420;53.150;6.370;2023-07-09T05:10:03;20.10;99.90
52509;DHT22;38420;53.150;6.370;2023-07-09T05:12:29;20.20;99.90
52509;DHT22;38420;53.150;6.370;2023-07-09T05:14:55;20.30;99.90
52509;DHT22;38420;53.150;6.370;2023-07-09T05:17:22;20.30;99.90
52509;DHT22;38420;53.150;6.370;2023-07-09T05:19:52;20.50;99.90
52509;DHT22;38420;53.150;6.370;2023-07-09T05:22:18;20.50;99.90
52509;DHT22;38420;53.150;6.370;2023-07-09T05:24:43;20.50;99.90
52509;DHT22;38420;53.150;6.370;2023-07-09T05:27:09;20.60;99.90
52509;DHT22;38420;53.150;6.370;2023-07-09T05:29:34;20.80;99.90
52509;DHT22;38420;53.150;6.370;2023-07-09T05:32:00;20.80;99.90
52509;DHT22;38420;53.150;6.370;2023-07-09T05:34:26;20.90;99.90
52509;DHT22;38420;53.150;6.370;2023-07-09T05:36:51;20.90;99.90
52509;DHT22;38420;53.150;6.370;2023-07-09T05:39:17;20.90;99.90
52509;DHT22;38420;53.150;6.370;2023-07-09T05:41:43;21.00;99.90
52509;DHT22;38420;53.150;6.370;2023-07-09T05:44:09;21.10;99.90
52509;DHT22;38420;53.150;6.370;2023-07-09T05:46:35;21.20;99.90
52509;DHT22;38420;53.150;6.370;2023-07-09T05:49:08;21.30;99.90
52509;DHT22;38420;53.150;6.370;2023-07-09T05:51:34;21.40;99.90
52509;DHT22;38420;53.150;6.370;2023-07-09T05:54:00;21.50;99.90
52509;DHT22;38420;53.150;6.370;2023-07-09T05:56:26;21.40;99.90
52509;DHT22;38420;53.150;6.370;2023-07-09T05:58:52;21.40;99.90
52509;DHT22;38420;53.150;6.370;2023-07-09T06:01:18;21.60;99.90
52509;DHT22;38420;53.150;6.370;2023-07-09T06:03:45;21.50;99.90
52509;DHT22;38420;53.150;6.370;2023-07-09T06:06:12;21.50;99.90
52509;DHT22;38420;53.150;6.370;2023-07-09T06:08:38;21.60;99.90
52509;DHT22;38420;53.150;6.370;2023-07-09T06:11:04;21.60;99.90
52509;DHT22;38420;53.150;6.370;2023-07-09T06:13:30;21.60;99.90
52509;DHT22;38420;53.150;6.370;2023-07-09T06:15:57;21.70;99.90
52509;DHT22;38420;53.150;6.370;2023-07-09T06:18:24;21.80;99.90
52509;DHT22;38420;53.150;6.370;2023-07-09T06:20:55;21.90;99.90
52509;DHT22;38420;53.150;6.370;2023-07-09T06:23:21;22.00;99.90
52509;DHT22;38420;53.150;6.370;2023-07-09T06:25:47;22.10;99.90
52509;DHT22;38420;53.150;6.370;2023-07-09T06:28:17;22.10;99.90
52509;DHT22;38420;53.150;6.370;2023-07-09T06:30:44;22.30;99.90
52509;DHT22;38420;53.150;6.370;2023-07-09T06:33:11;22.40;99.90
52509;DHT22;38420;53.150;6.370;2023-07-09T06:35:37;22.50;99.90
52509;DHT22;38420;53.150;6.370;2023-07-09T06:38:03;22.60;99.90
52509;DHT22;38420;53.150;6.370;2023-07-09T06:40:29;22.70;99.90
52509;DHT22;38420;53.150;6.370;2023-07-09T06:42:54;22.80;99.90
52509;DHT22;38420;53.150;6.370;2023-07-09T06:45:20;22.90;99.90
52509;DHT22;38420;53.150;6.370;2023-07-09T06:47:46;23.10;99.90
52509;DHT22;38420;53.150;6.370;2023-07-09T06:50:14;23.20;99.90
52509;DHT22;38420;53.150;6.370;2023-07-09T06:52:40;23.20;99.90
52509;DHT22;38420;53.150;6.370;2023-07-09T06:55:06;23.40;99.90
52509;DHT22;38420;53.150;6.370;2023-07-09T06:57:33;23.50;99.90
52509;DHT22;38420;53.150;6.370;2023-07-09T06:59:58;23.60;99.90
52509;DHT22;38420;53.150;6.370;2023-07-09T07:02:24;23.60;99.90
52509;DHT22;38420;53.150;6.370;2023-07-09T07:04:50;23.70;99.90
52509;DHT22;38420;53.150;6.370;2023-07-09T07:07:15;23.80;99.90
52509;DHT22;38420;53.150;6.370;2023-07-09T07:09:41;23.90;99.90
52509;DHT22;38420;53.150;6.370;2023-07-09T07:12:07;24.00;99.90
52509;DHT22;38420;53.150;6.370;2023-07-09T07:14:33;24.10;99.90
52509;DHT22;38420;53.150;6.370;2023-07-09T07:16:58;24.30;99.90
52509;DHT22;38420;53.150;6.370;2023-07-09T07:19:24;24.40;99.90
52509;DHT22;38420;53.150;6.370;2023-07-09T07:21:50;24.50;99.90
52509;DHT22;38420;53.150;6.370;2023-07-09T07:24:15;24.70;99.90
52509;DHT22;38420;53.150;6.370;2023-07-09T07:26:41;24.70;99.90
52509;DHT22;38420;53.150;6.370;2023-07-09T07:29:06;24.70;99.90
52509;DHT22;38420;53.150;6.370;2023-07-09T07:31:32;24.80;99.90
52509;DHT22;38420;53.150;6.370;2023-07-09T07:33:58;24.90;99.90
52509;DHT22;38420;53.150;6.370;2023-07-09T07:36:23;24.90;99.90
52509;DHT22;38420;53.150;6.370;2023-07-09T07:38:49;25.00;99.90
52509;DHT22;38420;53.150;6.370;2023-07-09T07:41:14;25.00;99.90
52509;DHT22;38420;53.150;6.370;2023-07-09T07:43:40;25.10;99.90
52509;DHT22;38420;53.150;6.370;2023-07-09T07:46:06;25.30;99.90
52509;DHT22;38420;53.150;6.370;2023-07-09T07:48:32;25.40;99.90
52509;DHT22;38420;53.150;6.370;2023-07-09T07:50:59;25.70;99.90
52509;DHT22;38420;53.150;6.370;2023-07-09T07:53:26;26.10;99.90
52509;DHT22;38420;53.150;6.370;2023-07-09T07:55:55;26.60;99.90
52509;DHT22;38420;53.150;6.370;2023-07-09T07:58:21;27.20;99.90
52509;DHT22;38420;53.150;6.370;2023-07-09T08:00:47;27.70;99.90
52509;DHT22;38420;53.150;6.370;2023-07-09T08:03:13;28.00;99.90
52509;DHT22;38420;53.150;6.370;2023-07-09T08:05:38;28.30;99.90
52509;DHT22;38420;53.150;6.370;2023-07-09T08:08:04;28.50;99.90
52509;DHT22;38420;53.150;6.370;2023-07-09T08:10:30;28.60;99.90
52509;DHT22;38420;53.150;6.370;2023-07-09T08:12:55;28.60;99.90
52509;DHT22;38420;53.150;6.370;2023-07-09T08:15:24;28.70;99.90
52509;DHT22;38420;53.150;6.370;2023-07-09T08:17:49;28.70;99.90
52509;DHT22;38420;53.150;6.370;2023-07-09T08:20:15;28.90;99.90
52509;DHT22;38420;53.150;6.370;2023-07-09T08:22:41;29.00;99.90
52509;DHT22;38420;53.150;6.370;2023-07-09T08:25:07;29.10;99.90
52509;DHT22;38420;53.150;6.370;2023-07-09T08:27:32;29.30;99.90
52509;DHT22;38420;53.150;6.370;2023-07-09T08:29:58;29.60;99.90
52509;DHT22;38420;53.150;6.370;2023-07-09T08:32:23;29.90;99.90
52509;DHT22;38420;53.150;6.370;2023-07-09T08:34:49;30.40;99.90
52509;DHT22;38420;53.150;6.370;2023-07-09T08:37:15;30.70;99.90
52509;DHT22;38420;53.150;6.370;2023-07-09T08:39:40;31.10;99.90
52509;DHT22;38420;53.150;6.370;2023-07-09T08:42:17;31.20;99.90
52509;DHT22;38420;53.150;6.370;2023-07-09T08:50:18;31.30;99.90
52509;DHT22;38420;53.150;6.370;2023-07-09T08:52:46;31.30;99.90
52509;DHT22;38420;53.150;6.370;2023-07-09T08:55:20;31.20;99.90
52509;DHT22;38420;53.150;6.370;2023-07-09T08:57:55;31.20;99.90
52509;DHT22;38420;53.150;6.370;2023-07-09T09:00:31;31.20;99.90
52509;DHT22;38420;53.150;6.370;2023-07-09T09:03:08;31.10;99.90
52509;DHT22;38420;53.150;6.370;2023-07-09T09:05:39;31.10;99.90
52509;DHT22;38420;53.150;6.370;2023-07-09T09:13:57;30.40;99.90
52509;DHT22;38420;53.150;6.370;2023-07-09T09:16:35;30.20;99.90
52509;DHT22;38420;53.150;6.370;2023-07-09T09:19:01;30.10;99.90
52509;DHT22;38420;53.150;6.370;2023-07-09T09:21:35;29.90;99.90
52509;DHT22;38420;53.150;6.370;2023-07-09T09:24:23;29.70;99.90
52509;DHT22;38420;53.150;6.370;2023-07-09T09:26:53;29.70;99.90
52509;DHT22;38420;53.150;6.370;2023-07-09T09:29:24;29.70;99.90
52509;DHT22;38420;53.150;6.370;2023-07-09T09:31:53;29.50;99.90
52509;DHT22;38420;53.150;6.370;2023-07-09T09:34:29;29.20;99.90
52509;DHT22;38420;53.150;6.370;2023-07-09T09:36:57;29.20;99.90
52509;DHT22;38420;53.150;6.370;2023-07-09T09:39:25;29.20;99.90
52509;DHT22;38420;53.150;6.370;2023-07-09T09:41:54;29.20;99.90
52509;DHT22;38420;53.150;6.370;2023-07-09T09:44:25;29.10;99.90
52509;DHT22;38420;53.150;6.370;2023-07-09T09:46:52;29.10;99.90
52509;DHT22;38420;53.150;6.370;2023-07-09T09:49:18;29.20;99.90
52509;DHT22;38420;53.150;6.370;2023-07-09T09:51:46;29.30;99.90
52509;DHT22;38420;53.150;6.370;2023-07-09T09:54:21;29.50;99.90
52509;DHT22;38420;53.150;6.370;2023-07-09T09:56:49;29.50;99.90
52509;DHT22;38420;53.150;6.370;2023-07-09T09:59:29;29.60;99.90
52509;DHT22;38420;53.150;6.370;2023-07-09T10:01:56;29.60;99.90
52509;DHT22;38420;53.150;6.370;2023-07-09T10:04:22;29.70;99.90
52509;DHT22;38420;53.150;6.370;2023-07-09T10:06:55;29.60;99.90
52509;DHT22;38420;53.150;6.370;2023-07-09T10:09:47;29.60;99.90
52509;DHT22;38420;53.150;6.370;2023-07-09T10:12:40;29.60;99.90
52509;DHT22;38420;53.150;6.370;2023-07-09T10:18:07;29.60;99.90
52509;DHT22;38420;53.150;6.370;2023-07-09T10:20:55;29.50;99.90
52509;DHT22;38420;53.150;6.370;2023-07-09T10:23:39;29.70;99.90
52509;DHT22;38420;53.150;6.370;2023-07-09T10:26:25;29.70;99.90
52509;DHT22;38420;53.150;6.370;2023-07-09T10:32:01;29.70;99.90
52509;DHT22;38420;53.150;6.370;2023-07-09T10:40:17;29.70;99.90
52509;DHT22;38420;53.150;6.370;2023-07-09T10:42:53;29.80;99.90
52509;DHT22;38420;53.150;6.370;2023-07-09T10:45:30;29.80;99.90
52509;DHT22;38420;53.150;6.370;2023-07-09T10:48:01;29.80;99.90
52509;DHT22;38420;53.150;6.370;2023-07-09T10:50:37;29.80;99.90
52509;DHT22;38420;53.150;6.370;2023-07-09T10:53:12;29.80;99.90
52509;DHT22;38420;53.150;6.370;2023-07-09T10:55:46;29.80;99.90
52509;DHT22;38420;53.150;6.370;2023-07-09T11:01:01;29.90;99.90
52509;DHT22;38420;53.150;6.370;2023-07-09T11:06:18;29.80;99.90
52509;DHT22;38420;53.150;6.370;2023-07-09T11:08:48;30.00;99.90
52509;DHT22;38420;53.150;6.370;2023-07-09T11:11:43;29.90;99.90
52509;DHT22;38420;53.150;6.370;2023-07-09T11:14:25;29.90;99.90
52509;DHT22;38420;53.150;6.370;2023-07-09T11:16:55;30.00;99.90
52509;DHT22;38420;53.150;6.370;2023-07-09T11:19:22;30.20;99.90
52509;DHT22;38420;53.150;6.370;2023-07-09T11:24:34;29.90;99.40
52509;DHT22;38420;53.150;6.370;2023-07-09T11:27:00;29.80;99.80
52509;DHT22;38420;53.150;6.370;2023-07-09T11:29:27;29.80;99.30
52509;DHT22;38420;53.150;6.370;2023-07-09T11:31:54;29.80;99.40
52509;DHT22;38420;53.150;6.370;2023-07-09T11:34:28;29.80;99.80
52509;DHT22;38420;53.150;6.370;2023-07-09T11:42:28;29.80;99.90
52509;DHT22;38420;53.150;6.370;2023-07-09T11:45:14;29.90;99.90
52509;DHT22;38420;53.150;6.370;2023-07-09T11:47:46;29.80;99.90
52509;DHT22;38420;53.150;6.370;2023-07-09T11:50:30;29.80;99.90
52509;DHT22;38420;53.150;6.370;2023-07-09T11:53:01;29.90;99.90
52509;DHT22;38420;53.150;6.370;2023-07-09T11:55:44;29.80;99.90
52509;DHT22;38420;53.150;6.370;2023-07-09T11:58:18;29.90;99.90
52509;DHT22;38420;53.150;6.370;2023-07-09T12:00:46;29.90;99.90
52509;DHT22;38420;53.150;6.370;2023-07-09T12:03:37;30.00;99.90
52509;DHT22;38420;53.150;6.370;2023-07-09T12:06:13;30.00;99.40
52509;DHT22;38420;53.150;6.370;2023-07-09T12:08:42;30.00;99.00
52509;DHT22;38420;53.150;6.370;2023-07-09T12:13:47;30.00;99.50
52509;DHT22;38420;53.150;6.370;2023-07-09T12:16:49;30.00;99.40
52509;DHT22;38420;53.150;6.370;2023-07-09T12:19:17;30.00;98.50
52509;DHT22;38420;53.150;6.370;2023-07-09T12:21:46;30.00;99.00
52509;DHT22;38420;53.150;6.370;2023-07-09T12:24:24;29.90;99.10
52509;DHT22;38420;53.150;6.370;2023-07-09T12:26:58;30.00;99.00
52509;DHT22;38420;53.150;6.370;2023-07-09T12:29:26;30.20;99.40
52509;DHT22;38420;53.150;6.370;2023-07-09T12:31:52;30.20;99.20
52509;DHT22;38420;53.150;6.370;2023-07-09T12:34:18;30.20;99.20
52509;DHT22;38420;53.150;6.370;2023-07-09T12:36:48;30.20;99.40
52509;DHT22;38420;53.150;6.370;2023-07-09T12:39:16;30.10;99.20
52509;DHT22;38420;53.150;6.370;2023-07-09T12:41:44;30.10;99.20
52509;DHT22;38420;53.150;6.370;2023-07-09T12:44:20;30.00;99.30
52509;DHT22;38420;53.150;6.370;2023-07-09T12:46:48;30.00;99.80
52509;DHT22;38420;53.150;6.370;2023-07-09T12:51:49;30.10;99.80
52509;DHT22;38420;53.150;6.370;2023-07-09T12:54:20;30.20;99.90
52509;DHT22;38420;53.150;6.370;2023-07-09T12:56:50;30.20;99.50
52509;DHT22;38420;53.150;6.370;2023-07-09T12:59:22;30.10;99.20
52509;DHT22;38420;53.150;6.370;2023-07-09T13:04:32;30.00;98.10
52509;DHT22;38420;53.150;6.370;2023-07-09T13:06:57;30.00;98.30
52509;DHT22;38420;53.150;6.370;2023-07-09T13:09:26;30.00;98.60
52509;DHT22;38420;53.150;6.370;2023-07-09T13:11:54;30.00;98.70
52509;DHT22;38420;53.150;6.370;2023-07-09T13:14:25;30.00;98.20
52509;DHT22;38420;53.150;6.370;2023-07-09T13:16:52;30.00;98.10
52509;DHT22;38420;53.150;6.370;2023-07-09T13:19:18;29.90;98.10
52509;DHT22;38420;53.150;6.370;2023-07-09T13:21:45;30.00;97.90
52509;DHT22;38420;53.150;6.370;2023-07-09T13:24:25;29.90;97.70
52509;DHT22;38420;53.150;6.370;2023-07-09T13:26:51;29.90;97.50
52509;DHT22;38420;53.150;6.370;2023-07-09T13:29:19;29.80;97.60
52509;DHT22;38420;53.150;6.370;2023-07-09T13:31:45;29.80;97.00
52509;DHT22;38420;53.150;6.370;2023-07-09T13:34:26;29.80;96.90
52509;DHT22;38420;53.150;6.370;2023-07-09T13:36:53;29.80;96.50
52509;DHT22;38420;53.150;6.370;2023-07-09T13:39:22;29.80;96.80
52509;DHT22;38420;53.150;6.370;2023-07-09T13:41:49;29.80;96.70
52509;DHT22;38420;53.150;6.370;2023-07-09T13:44:18;29.70;96.30
52509;DHT22;38420;53.150;6.370;2023-07-09T13:46:44;29.70;96.60
52509;DHT22;38420;53.150;6.370;2023-07-09T13:49:13;29.70;96.30
52509;DHT22;38420;53.150;6.370;2023-07-09T13:51:40;29.70;96.30
52509;DHT22;38420;53.150;6.370;2023-07-09T13:54:28;29.80;95.80
52509;DHT22;38420;53.150;6.370;2023-07-09T13:57:01;29.80;95.50
52509;DHT22;38420;53.150;6.370;2023-07-09T13:59:28;29.60;95.60
52509;DHT22;38420;53.150;6.370;2023-07-09T14:01:56;29.60;95.80
52509;DHT22;38420;53.150;6.370;2023-07-09T14:04:22;29.60;95.90
52509;DHT22;38420;53.150;6.370;2023-07-09T14:06:48;29.50;95.90
52509;DHT22;38420;53.150;6.370;2023-07-09T14:09:15;29.60;95.90
52509;DHT22;38420;53.150;6.370;2023-07-09T14:11:47;29.70;96.00
52509;DHT22;38420;53.150;6.370;2023-07-09T14:14:22;29.70;95.70
52509;DHT22;38420;53.150;6.370;2023-07-09T14:16:49;29.70;95.80
52509;DHT22;38420;53.150;6.370;2023-07-09T14:19:18;29.50;95.80
52509;DHT22;38420;53.150;6.370;2023-07-09T14:21:44;29.50;96.00
52509;DHT22;38420;53.150;6.370;2023-07-09T14:26:50;29.20;96.00
52509;DHT22;38420;53.150;6.370;2023-07-09T14:29:16;29.00;96.00
52509;DHT22;38420;53.150;6.370;2023-07-09T14:31:44;28.90;96.30
52509;DHT22;38420;53.150;6.370;2023-07-09T14:34:27;28.80;96.40
52509;DHT22;38420;53.150;6.370;2023-07-09T14:36:55;28.60;96.40
52509;DHT22;38420;53.150;6.370;2023-07-09T14:39:21;28.40;96.70
52509;DHT22;38420;53.150;6.370;2023-07-09T14:41:47;28.30;96.70
52509;DHT22;38420;53.150;6.370;2023-07-09T14:44:24;28.10;96.40
52509;DHT22;38420;53.150;6.370;2023-07-09T14:46:52;28.00;96.50
52509;DHT22;38420;53.150;6.370;2023-07-09T14:49:18;27.90;96.80
52509;DHT22;38420;53.150;6.370;2023-07-09T14:51:45;27.70;96.90
52509;DHT22;38420;53.150;6.370;2023-07-09T14:56:47;27.40;98.00
52509;DHT22;38420;53.150;6.370;2023-07-09T14:59:13;27.30;98.30
52509;DHT22;38420;53.150;6.370;2023-07-09T15:01:39;27.10;98.60
52509;DHT22;38420;53.150;6.370;2023-07-09T15:04:32;26.90;98.40
52509;DHT22;38420;53.150;6.370;2023-07-09T15:06:59;26.70;99.30
52509;DHT22;38420;53.150;6.370;2023-07-09T15:09:26;26.40;99.90
52509;DHT22;38420;53.150;6.370;2023-07-09T15:11:55;26.20;99.90
52509;DHT22;38420;53.150;6.370;2023-07-09T15:14:21;26.00;99.90
52509;DHT22;38420;53.150;6.370;2023-07-09T15:16:48;25.80;99.90
52509;DHT22;38420;53.150;6.370;2023-07-09T15:19:16;25.40;99.90
52509;DHT22;38420;53.150;6.370;2023-07-09T15:21:42;25.00;99.90
52509;DHT22;38420;53.150;6.370;2023-07-09T15:24:25;24.50;99.90
52509;DHT22;38420;53.150;6.370;2023-07-09T15:26:53;24.00;99.90
52509;DHT22;38420;53.150;6.370;2023-07-09T15:29:20;23.50;99.90
52509;DHT22;38420;53.150;6.370;2023-07-09T15:31:46;23.10;99.90
52509;DHT22;38420;53.150;6.370;2023-07-09T15:34:11;22.80;99.90
52509;DHT22;38420;53.150;6.370;2023-07-09T15:36:46;22.60;99.90
52509;DHT22;38420;53.150;6.370;2023-07-09T15:39:13;22.10;99.90
52509;DHT22;38420;53.150;6.370;2023-07-09T15:41:39;21.70;99.90
52509;DHT22;38420;53.150;6.370;2023-07-09T15:44:08;21.50;99.90
52509;DHT22;38420;53.150;6.370;2023-07-09T15:46:34;21.20;99.90
52509;DHT22;38420;53.150;6.370;2023-07-09T15:48:59;21.80;99.90
52509;DHT22;38420;53.150;6.370;2023-07-09T15:51:25;20.90;99.90
52509;DHT22;38420;53.150;6.370;2023-07-09T15:53:51;21.60;99.90
52509;DHT22;38420;53.150;6.370;2023-07-09T15:56:29;21.60;99.90
52509;DHT22;38420;53.150;6.370;2023-07-09T15:58:58;21.30;99.90
52509;DHT22;38420;53.150;6.370;2023-07-09T16:01:24;21.40;99.90
52509;DHT22;38420;53.150;6.370;2023-07-09T16:03:52;20.90;99.90
52509;DHT22;38420;53.150;6.370;2023-07-09T16:06:19;20.30;99.90
52509;DHT22;38420;53.150;6.370;2023-07-09T16:08:44;20.30;99.90
52509;DHT22;38420;53.150;6.370;2023-07-09T16:11:19;21.00;99.90
52509;DHT22;38420;53.150;6.370;2023-07-09T16:13:45;20.10;99.90
52509;DHT22;38420;53.150;6.370;2023-07-09T16:16:16;21.10;99.90
52509;DHT22;38420;53.150;6.370;2023-07-09T16:18:42;19.70;99.90
52509;DHT22;38420;53.150;6.370;2023-07-09T16:21:29;19.90;99.90
52509;DHT22;38420;53.150;6.370;2023-07-09T16:23:57;20.40;99.90
52509;DHT22;38420;53.150;6.370;2023-07-09T16:26:24;19.80;99.90
52509;DHT22;38420;53.150;6.370;2023-07-09T16:28:50;20.60;99.90
52509;DHT22;38420;53.150;6.370;2023-07-09T16:31:15;19.90;99.90